DENGJ EDDC-EDDC

Flight info

Callsign DENGJ
Flight time 0h 33m
Altitude
Route
Aircraft DA40

Departure

Time 2026-04-27 12:18
Airport Dresden Airport (EDDC)

Arrival

Time 2026-04-27 12:51
Airport Dresden Airport (EDDC)
Time Latitude Longitude Altitude Speed Heading
2026-04-27 12:09 51.12434 13.76022 754 ft 0 kts 311°
2026-04-27 12:15 51.12434 13.76021 754 ft 2 kts 311°
2026-04-27 12:15 51.12470 13.75953 756 ft 2 kts 277°
2026-04-27 12:15 51.12424 13.75886 754 ft 11 kts 223°
2026-04-27 12:16 51.12371 13.75748 757 ft 15 kts 298°
2026-04-27 12:16 51.12407 13.75617 757 ft 3 kts 295°
2026-04-27 12:16 51.12408 13.75612 757 ft 0 kts 291°
2026-04-27 12:17 51.12408 13.75611 757 ft 3 kts 292°
2026-04-27 12:17 51.12491 13.75503 757 ft 12 kts 38°
2026-04-27 12:17 51.12639 13.75704 754 ft 51 kts 43°
2026-04-27 12:18 51.12999 13.76189 854 ft 74 kts 35°
2026-04-27 12:18 51.13369 13.76741 1140 ft 71 kts 38°
2026-04-27 12:18 51.13734 13.77275 1319 ft 78 kts 33°
2026-04-27 12:18 51.14187 13.77825 1501 ft 86 kts 34°
2026-04-27 12:19 51.14690 13.78467 1676 ft 98 kts 39°
2026-04-27 12:19 51.14963 13.79450 1801 ft 114 kts 105°
2026-04-27 12:19 51.14440 13.80463 1893 ft 125 kts 135°
2026-04-27 12:19 51.13780 13.81373 2025 ft 126 kts 149°
2026-04-27 12:20 51.13011 13.81038 2130 ft 125 kts 224°
2026-04-27 12:20 51.12363 13.79961 1965 ft 141 kts 231°
2026-04-27 12:20 51.11724 13.78719 1957 ft 138 kts 233°
2026-04-27 12:20 51.11147 13.77507 1872 ft 146 kts 236°
2026-04-27 12:21 51.10553 13.76151 1824 ft 143 kts 234°
2026-04-27 12:21 51.10025 13.74969 1774 ft 125 kts 253°
2026-04-27 12:21 51.10286 13.73804 1606 ft 120 kts 314°
2026-04-27 12:21 51.10940 13.73323 1612 ft 102 kts 16°
2026-04-27 12:22 51.11516 13.74028 1198 ft 107 kts 45°
2026-04-27 12:22 51.12014 13.74842 910 ft 99 kts 40°
2026-04-27 12:22 51.12494 13.75502 775 ft 82 kts 39°
2026-04-27 12:22 51.12869 13.76015 754 ft 71 kts 37°
2026-04-27 12:23 51.13335 13.76619 854 ft 91 kts 40°
2026-04-27 12:23 51.13809 13.77311 1074 ft 94 kts 31°
2026-04-27 12:23 51.14307 13.77938 1385 ft 86 kts 37°
2026-04-27 12:23 51.14742 13.78603 1668 ft 91 kts 41°
2026-04-27 12:24 51.15320 13.79076 1755 ft 107 kts 345°
2026-04-27 12:24 51.15919 13.78235 1747 ft 124 kts 312°
2026-04-27 12:24 51.16444 13.77156 1965 ft 112 kts 288°
2026-04-27 12:24 51.15971 13.76212 1918 ft 136 kts 211°
2026-04-27 12:25 51.15137 13.75412 1847 ft 143 kts 213°
2026-04-27 12:25 51.14307 13.74541 1794 ft 143 kts 215°
2026-04-27 12:25 51.13540 13.73548 1899 ft 138 kts 226°
2026-04-27 12:25 51.12881 13.72582 1936 ft 118 kts 224°
2026-04-27 12:26 51.12183 13.72458 1663 ft 112 kts 150°
2026-04-27 12:26 51.11632 13.73313 1271 ft 113 kts 117°
2026-04-27 12:26 51.11616 13.74339 1039 ft 96 kts 43°
2026-04-27 12:26 51.12175 13.75051 845 ft 106 kts 36°
2026-04-27 12:27 51.12699 13.75785 762 ft 88 kts 37°
2026-04-27 12:27 51.13100 13.76335 746 ft 76 kts 39°
2026-04-27 12:27 51.13540 13.76965 934 ft 85 kts 43°
2026-04-27 12:27 51.13954 13.77625 1173 ft 85 kts 36°
2026-04-27 12:28 51.14426 13.78211 1416 ft 88 kts 38°
2026-04-27 12:28 51.14902 13.78902 1626 ft 97 kts 38°
2026-04-27 12:28 51.15533 13.78871 1570 ft 122 kts 309°
2026-04-27 12:28 51.16004 13.77805 1775 ft 117 kts 309°
2026-04-27 12:29 51.16084 13.76578 1752 ft 133 kts 231°
2026-04-27 12:29 51.15347 13.75656 1788 ft 137 kts 217°
2026-04-27 12:29 51.14569 13.74704 1720 ft 142 kts 220°
2026-04-27 12:29 51.13791 13.73692 1632 ft 146 kts 221°
2026-04-27 12:30 51.13040 13.72606 1640 ft 144 kts 226°
2026-04-27 12:30 51.12340 13.71528 1444 ft 127 kts 227°
2026-04-27 12:30 51.11760 13.70608 1257 ft 106 kts 225°
2026-04-27 12:30 51.11107 13.70584 1122 ft 104 kts 148°
2026-04-27 12:31 51.10632 13.71428 997 ft 102 kts 126°
2026-04-27 12:31 51.10226 13.72326 889 ft 94 kts 107°
2026-04-27 12:31 51.10577 13.73169 863 ft 105 kts 35°
2026-04-27 12:31 51.11215 13.73817 913 ft 113 kts 34°
2026-04-27 12:32 51.11800 13.74536 889 ft 102 kts 38°
2026-04-27 12:32 51.12316 13.75265 886 ft 95 kts 39°
2026-04-27 12:32 51.12774 13.75887 758 ft 75 kts 37°
2026-04-27 12:32 51.13107 13.76340 773 ft 56 kts 41°
2026-04-27 12:33 51.13470 13.76882 860 ft 75 kts 40°
2026-04-27 12:33 51.13896 13.77496 998 ft 90 kts 37°
2026-04-27 12:33 51.14340 13.78141 1300 ft 84 kts 39°
2026-04-27 12:33 51.14796 13.78791 1515 ft 94 kts 39°
2026-04-27 12:34 51.15362 13.79361 1652 ft 104 kts 356°
2026-04-27 12:34 51.15923 13.78456 1590 ft 122 kts 307°
2026-04-27 12:34 51.16406 13.77362 1801 ft 111 kts 288°
2026-04-27 12:34 51.16134 13.76420 2002 ft 119 kts 221°
2026-04-27 12:35 51.15416 13.75553 1996 ft 128 kts 215°
2026-04-27 12:35 51.14656 13.74821 2019 ft 136 kts 214°
2026-04-27 12:35 51.13826 13.73943 1875 ft 149 kts 217°
2026-04-27 12:35 51.13070 13.73105 1817 ft 120 kts 218°
2026-04-27 12:36 51.12384 13.72666 1519 ft 107 kts 161°
2026-04-27 12:36 51.11838 13.73455 1179 ft 102 kts 124°
2026-04-27 12:36 51.11605 13.74353 1096 ft 80 kts 51°
2026-04-27 12:36 51.12097 13.74947 905 ft 96 kts 38°
2026-04-27 12:37 51.12586 13.75627 776 ft 86 kts 39°
2026-04-27 12:37 51.12965 13.76162 750 ft 61 kts 39°
2026-04-27 12:37 51.13309 13.76606 767 ft 80 kts 40°
2026-04-27 12:37 51.13731 13.77231 957 ft 84 kts 42°
2026-04-27 12:38 51.14218 13.77880 1108 ft 91 kts 43°
2026-04-27 12:38 51.14596 13.78666 1413 ft 88 kts 52°
2026-04-27 12:38 51.15010 13.79442 1657 ft 93 kts 49°
2026-04-27 12:38 51.15557 13.79715 1666 ft 115 kts 316°
2026-04-27 12:39 51.16005 13.78605 1696 ft 122 kts 308°
2026-04-27 12:39 51.16442 13.77475 1827 ft 124 kts 277°
2026-04-27 12:39 51.15836 13.76390 1723 ft 141 kts 217°
2026-04-27 12:39 51.15022 13.75509 1763 ft 138 kts 216°
2026-04-27 12:40 51.14246 13.74653 1847 ft 135 kts 216°
2026-04-27 12:40 51.13472 13.73860 1914 ft 122 kts 222°
2026-04-27 12:40 51.12907 13.73066 1740 ft 104 kts 231°
2026-04-27 12:40 51.12302 13.72630 1345 ft 105 kts 163°
2026-04-27 12:41 51.11810 13.73429 1246 ft 100 kts 123°
2026-04-27 12:41 51.11708 13.74501 1057 ft 106 kts 68°
2026-04-27 12:41 51.12290 13.75180 902 ft 106 kts 31°
2026-04-27 12:41 51.12787 13.75903 766 ft 85 kts 41°
2026-04-27 12:42 51.13165 13.76424 745 ft 60 kts 39°
2026-04-27 12:42 51.13529 13.76937 776 ft 82 kts 41°
2026-04-27 12:42 51.13930 13.77523 1048 ft 78 kts 38°
2026-04-27 12:42 51.14336 13.78065 1286 ft 78 kts 23°
2026-04-27 12:43 51.14864 13.77834 1386 ft 95 kts 355°
2026-04-27 12:43 51.14973 13.78801 1446 ft 112 kts 123°
2026-04-27 12:43 51.14376 13.79645 1616 ft 120 kts 142°
2026-04-27 12:43 51.13711 13.80410 1840 ft 118 kts 147°
2026-04-27 12:44 51.12939 13.80557 1934 ft 120 kts 217°
2026-04-27 12:44 51.12367 13.79420 1732 ft 140 kts 237°
2026-04-27 12:44 51.11792 13.78150 1705 ft 143 kts 235°
2026-04-27 12:44 51.11218 13.76872 1671 ft 133 kts 234°
2026-04-27 12:45 51.10863 13.75700 1352 ft 115 kts 281°
2026-04-27 12:45 51.11325 13.74855 1102 ft 99 kts 334°
2026-04-27 12:45 51.11951 13.74920 900 ft 85 kts 22°
2026-04-27 12:45 51.12397 13.75390 792 ft 73 kts 33°
2026-04-27 12:46 51.12752 13.75867 758 ft 59 kts 40°
2026-04-27 12:46 51.13077 13.76305 748 ft 77 kts 34°
2026-04-27 12:46 51.13486 13.76890 988 ft 77 kts 39°
2026-04-27 12:46 51.13927 13.77461 1140 ft 89 kts 37°
2026-04-27 12:47 51.14388 13.78178 1310 ft 97 kts 42°
2026-04-27 12:47 51.14896 13.78905 1513 ft 102 kts 40°
2026-04-27 12:47 51.15416 13.79722 1735 ft 104 kts 49°
2026-04-27 12:47 51.15220 13.80649 2026 ft 108 kts 136°
2026-04-27 12:48 51.14546 13.81225 2223 ft 109 kts 191°
2026-04-27 12:48 51.13806 13.80615 2150 ft 132 kts 217°
2026-04-27 12:48 51.13054 13.79666 2019 ft 143 kts 221°
2026-04-27 12:48 51.12277 13.78621 1935 ft 145 kts 224°
2026-04-27 12:49 51.11525 13.77502 1710 ft 158 kts 222°
2026-04-27 12:49 51.10686 13.76619 1916 ft 130 kts 214°
2026-04-27 12:49 51.10036 13.75835 1724 ft 107 kts 224°
2026-04-27 12:49 51.09534 13.75037 1458 ft 95 kts 251°
2026-04-27 12:50 51.09775 13.74151 1164 ft 107 kts 325°
2026-04-27 12:50 51.10441 13.73658 989 ft 98 kts 340°
2026-04-27 12:50 51.11084 13.73535 996 ft 88 kts 27°
2026-04-27 12:50 51.11587 13.74263 930 ft 101 kts 41°
2026-04-27 12:51 51.12146 13.75011 874 ft 108 kts 41°
2026-04-27 12:51 51.12657 13.75726 767 ft 88 kts 39°
2026-04-27 12:51 51.13046 13.76264 749 ft 58 kts 38°
2026-04-27 12:51 51.13274 13.76540 741 ft 31 kts 53°
2026-04-27 12:52 51.13346 13.76765 737 ft 14 kts 125°
2026-04-27 12:52 51.13310 13.76847 738 ft 13 kts 127°
2026-04-27 12:52 51.13274 13.76915 739 ft 0 kts 135°
2026-04-27 12:53 51.13272 13.76918 739 ft 6 kts 134°
2026-04-27 12:53 51.13201 13.76955 739 ft 14 kts 216°
2026-04-27 12:53 51.13094 13.76780 744 ft 18 kts 234°
2026-04-27 12:54 51.12941 13.76595 746 ft 32 kts 220°
2026-04-27 12:54 51.12733 13.76312 749 ft 44 kts 220°
2026-04-27 12:54 51.12471 13.75958 755 ft 31 kts 218°
2026-04-27 12:54 51.12413 13.75963 755 ft 0 kts 127°